This is the latest recevied weather packets stored in our database for station/object HS2GJW-1. If no packets are shown the sender has not sent any weather packets the latest 10 day(s).
| Time | Temp. | Humidity | Pressure | Rain* | Wind** | Luminosity | Snow |
|---|---|---|---|---|---|---|---|
| 1778149183 | 30° C | 95% | 1007 hPa | - | - | 0 W/m² | - |
| 1778148557 | 30° C | 96% | 1007 hPa | - | - | 0 W/m² | - |
| 1778147930 | 30° C | 96% | 1007 hPa | - | - | 0 W/m² | - |
| 1778147303 | 30° C | 97% | 1006 hPa | - | - | 0 W/m² | - |
| 1778111605 | 29.44° C | 99% | 1009 hPa | - | - | 0 W/m² | - |
| 1778110978 | 29.44° C | 99% | 1009 hPa | - | - | 0 W/m² | - |
| 1778110348 | 28.89° C | 99% | 1009 hPa | - | - | 0 W/m² | - |
| 1778109719 | 28.33° C | 99% | 1009 hPa | - | - | 0 W/m² | - |
| 1778109093 | 27.78° C | 99% | 1009 hPa | - | - | 0 W/m² | - |
| 1778073112 | 31.11° C | 91% | 1008 hPa | - | - | 0 W/m² | - |
| 1778072488 | 31.11° C | 91% | 1007 hPa | - | - | 0 W/m² | - |
| 1778071865 | 30.56° C | 92% | 1007 hPa | - | - | 0 W/m² | - |
| 1778071241 | 30° C | 95% | 1007 hPa | - | - | 0 W/m² | - |
| 1778070617 | 30.56° C | 93% | 1007 hPa | - | - | 0 W/m² | - |
| 1778065352 | 33.33° C | 71% | 1007 hPa | - | - | 0 W/m² | - |
| 1778064725 | 33.89° C | 69% | 1007 hPa | - | - | 0 W/m² | - |
| 1778064099 | 33.89° C | 70% | 1007 hPa | - | - | 0 W/m² | - |
| 1778063475 | 34.44° C | 70% | 1006 hPa | - | - | 0 W/m² | - |
| 1778062851 | 34.44° C | 71% | 1005 hPa | - | - | 0 W/m² | - |
| 1778062224 | 34.44° C | 72% | 1006 hPa | - | - | 0 W/m² | - |
| 1778061599 | 34.44° C | 70% | 1006 hPa | - | - | 0 W/m² | - |
| 1778060975 | 34.44° C | 69% | 1006 hPa | - | - | 0 W/m² | - |
| 1778060350 | 34.44° C | 69% | 1006 hPa | - | - | 0 W/m² | - |
| 1778059726 | 35° C | 71% | 1006 hPa | - | - | 0 W/m² | - |
| 1778059101 | 35° C | 72% | 1005 hPa | - | - | 0 W/m² | - |
* Rain since midnight (hover to see other rain measurements)
** Current wind speed in m/s (hover to see current wind gust speed)